This is the latest recevied weather packets stored in our database for station/object WE1C. If no packets are shown the sender has not sent any weather packets the latest 10 day(s).
| Time | Temp. | Humidity | Pressure | Rain* | Wind** | Luminosity | Snow |
|---|---|---|---|---|---|---|---|
| 1777923300 | 21.11° C | 32% | 1036.5 hPa | 0 mm | - | 161 W/m² | - |
| 1777922999 | 21.67° C | 32% | 1036.5 hPa | 0 mm | - | 667 W/m² | - |
| 1777922696 | 21.67° C | 31% | 1036.5 hPa | 0 mm | - | 596 W/m² | - |
| 1777922395 | 21.67° C | 31% | 1036.4 hPa | 0 mm | - | 692 W/m² | - |
| 1777922092 | 20.56° C | 32% | 1036.6 hPa | 0 mm | - | 231 W/m² | - |
| 1777921787 | 21.11° C | 30% | 1036.4 hPa | 0 mm | - | 615 W/m² | - |
| 1777921483 | 21.67° C | 29% | 1036.5 hPa | 0 mm | - | 694 W/m² | - |
| 1777921180 | 21.67° C | 29% | 1036.6 hPa | 0 mm | - | 704 W/m² | - |
| 1777920878 | 21.11° C | 30% | 1036.8 hPa | 0 mm | - | 713 W/m² | - |
| 1777920573 | 21.11° C | 29% | 1036.6 hPa | 0 mm | - | 695 W/m² | - |
| 1777920269 | 21.67° C | 29% | 1036.5 hPa | 0 mm | - | 704 W/m² | - |
| 1777919965 | 21.11° C | 32% | 1036.8 hPa | 0 mm | - | 161 W/m² | - |
| 1777919663 | 21.11° C | 30% | 1037 hPa | 0 mm | - | 720 W/m² | - |
| 1777919361 | 21.11° C | 29% | 1037 hPa | 0 mm | - | 715 W/m² | - |
| 1777919057 | 21.11° C | 29% | 1037.1 hPa | 0 mm | - | 725 W/m² | - |
| 1777918754 | 21.11° C | 30% | 1036.9 hPa | 0 mm | - | 736 W/m² | - |
| 1777918452 | 21.11° C | 29% | 1037 hPa | 0 mm | - | 726 W/m² | - |
| 1777918150 | 20° C | 31% | 1036.9 hPa | 0 mm | - | 725 W/m² | - |
| 1777917849 | 20.56° C | 30% | 1037.3 hPa | 0 mm | - | 715 W/m² | - |
| 1777917547 | 20.56° C | 29% | 1037.2 hPa | 0 mm | - | 728 W/m² | - |
| 1777917243 | 20.56° C | 30% | 1036.9 hPa | 0 mm | - | 750 W/m² | - |
| 1777916941 | 20° C | 30% | 1037.1 hPa | 0 mm | - | 753 W/m² | - |
| 1777916638 | 20° C | 31% | 1037.2 hPa | 0 mm | - | 750 W/m² | - |
| 1777916335 | 20° C | 29% | 1037.3 hPa | 0 mm | - | 740 W/m² | - |
| 1777916032 | 20° C | 31% | 1037.5 hPa | 0 mm | - | 742 W/m² | - |
* Rain latest hour (hover to see other rain measurements)
** Current wind speed in m/s (hover to see current wind gust speed)